sensor_id;sensor_type;location;lat;lon;timestamp;P1;durP1;ratioP1;P2;durP2;ratioP2
55364;SDS011;41245;45.384;20.390;2023-03-16T00:01:47;12.70;;;5.18;;
55364;SDS011;41245;45.384;20.390;2023-03-16T00:04:13;5.95;;;3.45;;
55364;SDS011;41245;45.384;20.390;2023-03-16T00:06:39;9.30;;;3.85;;
55364;SDS011;41245;45.384;20.390;2023-03-16T00:09:05;17.50;;;4.10;;
55364;SDS011;41245;45.384;20.390;2023-03-16T00:11:31;6.55;;;3.83;;
55364;SDS011;41245;45.384;20.390;2023-03-16T00:13:57;8.02;;;3.95;;
55364;SDS011;41245;45.384;20.390;2023-03-16T00:16:23;10.40;;;3.63;;
55364;SDS011;41245;45.384;20.390;2023-03-16T00:18:49;10.52;;;4.10;;
55364;SDS011;41245;45.384;20.390;2023-03-16T00:21:15;8.52;;;4.15;;
55364;SDS011;41245;45.384;20.390;2023-03-16T00:23:41;7.43;;;3.55;;
55364;SDS011;41245;45.384;20.390;2023-03-16T00:26:07;5.65;;;3.22;;
55364;SDS011;41245;45.384;20.390;2023-03-16T00:28:34;14.65;;;4.00;;
55364;SDS011;41245;45.384;20.390;2023-03-16T00:31:01;10.73;;;4.47;;
55364;SDS011;41245;45.384;20.390;2023-03-16T00:33:27;9.75;;;3.90;;
55364;SDS011;41245;45.384;20.390;2023-03-16T00:35:54;13.65;;;4.05;;
55364;SDS011;41245;45.384;20.390;2023-03-16T00:38:26;9.63;;;4.53;;
55364;SDS011;41245;45.384;20.390;2023-03-16T00:40:53;10.00;;;4.18;;
55364;SDS011;41245;45.384;20.390;2023-03-16T00:43:20;8.27;;;4.00;;
55364;SDS011;41245;45.384;20.390;2023-03-16T00:45:46;9.75;;;4.47;;
55364;SDS011;41245;45.384;20.390;2023-03-16T00:48:12;12.05;;;4.57;;
55364;SDS011;41245;45.384;20.390;2023-03-16T00:50:38;8.07;;;4.00;;
55364;SDS011;41245;45.384;20.390;2023-03-16T00:53:04;6.60;;;4.18;;
55364;SDS011;41245;45.384;20.390;2023-03-16T00:55:30;7.60;;;4.03;;
55364;SDS011;41245;45.384;20.390;2023-03-16T00:57:57;7.38;;;3.47;;
55364;SDS011;41245;45.384;20.390;2023-03-16T01:00:23;11.18;;;4.18;;
55364;SDS011;41245;45.384;20.390;2023-03-16T01:02:52;7.15;;;3.17;;
55364;SDS011;41245;45.384;20.390;2023-03-16T01:05:18;11.82;;;4.30;;
55364;SDS011;41245;45.384;20.390;2023-03-16T01:07:44;8.43;;;3.55;;
55364;SDS011;41245;45.384;20.390;2023-03-16T01:10:10;12.07;;;4.43;;
55364;SDS011;41245;45.384;20.390;2023-03-16T01:12:36;9.10;;;4.40;;
55364;SDS011;41245;45.384;20.390;2023-03-16T01:15:03;8.77;;;4.00;;
55364;SDS011;41245;45.384;20.390;2023-03-16T01:17:29;7.18;;;3.65;;
55364;SDS011;41245;45.384;20.390;2023-03-16T01:19:59;14.77;;;4.53;;
55364;SDS011;41245;45.384;20.390;2023-03-16T01:22:25;10.18;;;4.85;;
55364;SDS011;41245;45.384;20.390;2023-03-16T01:24:51;8.85;;;5.30;;
55364;SDS011;41245;45.384;20.390;2023-03-16T01:27:17;9.15;;;4.18;;
55364;SDS011;41245;45.384;20.390;2023-03-16T01:29:43;11.82;;;4.82;;
55364;SDS011;41245;45.384;20.390;2023-03-16T01:32:09;12.05;;;4.95;;
55364;SDS011;41245;45.384;20.390;2023-03-16T01:34:36;8.18;;;5.10;;
55364;SDS011;41245;45.384;20.390;2023-03-16T01:37:02;9.85;;;4.28;;
55364;SDS011;41245;45.384;20.390;2023-03-16T01:39:28;14.43;;;4.82;;
55364;SDS011;41245;45.384;20.390;2023-03-16T01:41:54;9.98;;;5.00;;
55364;SDS011;41245;45.384;20.390;2023-03-16T01:44:21;10.70;;;5.10;;
55364;SDS011;41245;45.384;20.390;2023-03-16T01:46:48;15.82;;;5.88;;
55364;SDS011;41245;45.384;20.390;2023-03-16T01:51:48;14.75;;;5.60;;
55364;SDS011;41245;45.384;20.390;2023-03-16T01:54:23;13.90;;;6.90;;
55364;SDS011;41245;45.384;20.390;2023-03-16T01:56:52;15.77;;;5.53;;
55364;SDS011;41245;45.384;20.390;2023-03-16T01:59:21;12.73;;;5.57;;
55364;SDS011;41245;45.384;20.390;2023-03-16T02:01:48;7.10;;;3.67;;
55364;SDS011;41245;45.384;20.390;2023-03-16T02:04:22;11.35;;;4.43;;
55364;SDS011;41245;45.384;20.390;2023-03-16T02:06:50;13.60;;;6.80;;
55364;SDS011;41245;45.384;20.390;2023-03-16T02:09:16;13.52;;;5.60;;
55364;SDS011;41245;45.384;20.390;2023-03-16T02:11:43;12.02;;;5.20;;
55364;SDS011;41245;45.384;20.390;2023-03-16T02:14:10;15.98;;;6.32;;
55364;SDS011;41245;45.384;20.390;2023-03-16T02:16:37;15.27;;;6.00;;
55364;SDS011;41245;45.384;20.390;2023-03-16T02:19:05;10.85;;;5.47;;
55364;SDS011;41245;45.384;20.390;2023-03-16T02:24:11;11.15;;;5.13;;
55364;SDS011;41245;45.384;20.390;2023-03-16T02:31:42;9.35;;;4.68;;
55364;SDS011;41245;45.384;20.390;2023-03-16T02:34:09;9.70;;;5.18;;
55364;SDS011;41245;45.384;20.390;2023-03-16T02:36:36;15.02;;;4.75;;
55364;SDS011;41245;45.384;20.390;2023-03-16T02:39:04;9.80;;;4.85;;
55364;SDS011;41245;45.384;20.390;2023-03-16T02:41:30;8.57;;;4.80;;
55364;SDS011;41245;45.384;20.390;2023-03-16T02:44:13;12.73;;;5.40;;
55364;SDS011;41245;45.384;20.390;2023-03-16T02:46:41;9.20;;;4.82;;
55364;SDS011;41245;45.384;20.390;2023-03-16T02:49:18;11.05;;;5.20;;
55364;SDS011;41245;45.384;20.390;2023-03-16T02:51:46;9.38;;;5.20;;
55364;SDS011;41245;45.384;20.390;2023-03-16T02:54:12;15.40;;;6.20;;
55364;SDS011;41245;45.384;20.390;2023-03-16T02:56:38;16.17;;;5.43;;
55364;SDS011;41245;45.384;20.390;2023-03-16T02:59:04;15.35;;;6.15;;
55364;SDS011;41245;45.384;20.390;2023-03-16T03:01:30;14.27;;;6.20;;
55364;SDS011;41245;45.384;20.390;2023-03-16T03:03:58;15.77;;;6.75;;
55364;SDS011;41245;45.384;20.390;2023-03-16T03:06:25;15.57;;;6.68;;
55364;SDS011;41245;45.384;20.390;2023-03-16T03:08:51;17.15;;;7.13;;
55364;SDS011;41245;45.384;20.390;2023-03-16T03:11:17;12.57;;;6.65;;
55364;SDS011;41245;45.384;20.390;2023-03-16T03:13:44;18.13;;;7.55;;
55364;SDS011;41245;45.384;20.390;2023-03-16T03:16:10;15.65;;;6.43;;
55364;SDS011;41245;45.384;20.390;2023-03-16T03:18:36;15.13;;;7.45;;
55364;SDS011;41245;45.384;20.390;2023-03-16T03:21:03;19.02;;;6.45;;
55364;SDS011;41245;45.384;20.390;2023-03-16T03:23:29;18.67;;;7.07;;
55364;SDS011;41245;45.384;20.390;2023-03-16T03:25:58;16.60;;;7.93;;
55364;SDS011;41245;45.384;20.390;2023-03-16T03:28:24;14.35;;;6.03;;
55364;SDS011;41245;45.384;20.390;2023-03-16T03:30:50;18.13;;;6.40;;
55364;SDS011;41245;45.384;20.390;2023-03-16T03:33:17;16.67;;;6.13;;
55364;SDS011;41245;45.384;20.390;2023-03-16T03:35:43;14.27;;;7.25;;
55364;SDS011;41245;45.384;20.390;2023-03-16T03:38:09;14.93;;;5.32;;
55364;SDS011;41245;45.384;20.390;2023-03-16T03:40:35;13.35;;;6.63;;
55364;SDS011;41245;45.384;20.390;2023-03-16T03:43:02;14.63;;;6.75;;
55364;SDS011;41245;45.384;20.390;2023-03-16T03:45:28;18.45;;;7.15;;
55364;SDS011;41245;45.384;20.390;2023-03-16T03:47:54;17.10;;;7.93;;
55364;SDS011;41245;45.384;20.390;2023-03-16T03:50:21;20.58;;;7.97;;
55364;SDS011;41245;45.384;20.390;2023-03-16T03:52:47;18.60;;;8.45;;
55364;SDS011;41245;45.384;20.390;2023-03-16T03:55:13;19.98;;;8.75;;
55364;SDS011;41245;45.384;20.390;2023-03-16T03:57:39;25.42;;;9.80;;
55364;SDS011;41245;45.384;20.390;2023-03-16T04:00:05;18.88;;;9.40;;
55364;SDS011;41245;45.384;20.390;2023-03-16T04:02:37;20.10;;;9.52;;
55364;SDS011;41245;45.384;20.390;2023-03-16T04:05:04;29.05;;;10.68;;
55364;SDS011;41245;45.384;20.390;2023-03-16T04:07:30;27.25;;;10.88;;
55364;SDS011;41245;45.384;20.390;2023-03-16T04:09:56;27.20;;;10.95;;
55364;SDS011;41245;45.384;20.390;2023-03-16T04:12:22;22.77;;;9.60;;
55364;SDS011;41245;45.384;20.390;2023-03-16T04:14:48;22.98;;;9.50;;
55364;SDS011;41245;45.384;20.390;2023-03-16T04:17:15;22.30;;;10.02;;
55364;SDS011;41245;45.384;20.390;2023-03-16T04:19:41;21.73;;;9.93;;
55364;SDS011;41245;45.384;20.390;2023-03-16T04:22:07;17.73;;;9.23;;
55364;SDS011;41245;45.384;20.390;2023-03-16T04:24:34;19.90;;;7.57;;
55364;SDS011;41245;45.384;20.390;2023-03-16T04:27:00;21.58;;;9.32;;
55364;SDS011;41245;45.384;20.390;2023-03-16T04:29:26;17.48;;;8.85;;
55364;SDS011;41245;45.384;20.390;2023-03-16T04:31:53;22.60;;;9.10;;
55364;SDS011;41245;45.384;20.390;2023-03-16T04:34:19;19.30;;;8.15;;
55364;SDS011;41245;45.384;20.390;2023-03-16T04:39:16;15.13;;;7.15;;
55364;SDS011;41245;45.384;20.390;2023-03-16T04:41:42;18.33;;;8.15;;
55364;SDS011;41245;45.384;20.390;2023-03-16T04:44:08;19.08;;;11.05;;
55364;SDS011;41245;45.384;20.390;2023-03-16T04:46:34;27.63;;;9.48;;
55364;SDS011;41245;45.384;20.390;2023-03-16T04:49:00;22.20;;;10.93;;
55364;SDS011;41245;45.384;20.390;2023-03-16T04:51:26;25.10;;;11.25;;
55364;SDS011;41245;45.384;20.390;2023-03-16T04:53:52;20.38;;;9.02;;
55364;SDS011;41245;45.384;20.390;2023-03-16T04:56:18;15.40;;;7.43;;
55364;SDS011;41245;45.384;20.390;2023-03-16T04:58:47;15.10;;;8.88;;
55364;SDS011;41245;45.384;20.390;2023-03-16T05:01:14;18.67;;;10.23;;
55364;SDS011;41245;45.384;20.390;2023-03-16T05:03:41;23.98;;;10.15;;
55364;SDS011;41245;45.384;20.390;2023-03-16T05:06:07;20.20;;;11.27;;
55364;SDS011;41245;45.384;20.390;2023-03-16T05:08:34;28.02;;;9.45;;
55364;SDS011;41245;45.384;20.390;2023-03-16T05:11:00;22.40;;;9.93;;
55364;SDS011;41245;45.384;20.390;2023-03-16T05:13:26;22.40;;;10.68;;
55364;SDS011;41245;45.384;20.390;2023-03-16T05:15:52;23.55;;;10.90;;
55364;SDS011;41245;45.384;20.390;2023-03-16T05:18:19;21.60;;;10.88;;
55364;SDS011;41245;45.384;20.390;2023-03-16T05:20:47;20.30;;;9.57;;
55364;SDS011;41245;45.384;20.390;2023-03-16T05:23:13;21.23;;;9.80;;
55364;SDS011;41245;45.384;20.390;2023-03-16T05:25:40;22.23;;;10.70;;
55364;SDS011;41245;45.384;20.390;2023-03-16T05:28:06;20.52;;;9.60;;
55364;SDS011;41245;45.384;20.390;2023-03-16T05:30:32;23.77;;;11.25;;
55364;SDS011;41245;45.384;20.390;2023-03-16T05:32:58;27.58;;;11.73;;
55364;SDS011;41245;45.384;20.390;2023-03-16T05:35:24;28.80;;;11.07;;
55364;SDS011;41245;45.384;20.390;2023-03-16T05:37:51;25.05;;;10.63;;
55364;SDS011;41245;45.384;20.390;2023-03-16T05:40:18;26.90;;;12.57;;
55364;SDS011;41245;45.384;20.390;2023-03-16T05:42:48;25.90;;;11.53;;
55364;SDS011;41245;45.384;20.390;2023-03-16T05:45:14;30.65;;;11.32;;
55364;SDS011;41245;45.384;20.390;2023-03-16T05:47:41;23.88;;;10.55;;
55364;SDS011;41245;45.384;20.390;2023-03-16T05:50:08;21.60;;;10.68;;
55364;SDS011;41245;45.384;20.390;2023-03-16T05:52:35;23.00;;;10.30;;
55364;SDS011;41245;45.384;20.390;2023-03-16T05:55:02;22.60;;;11.13;;
55364;SDS011;41245;45.384;20.390;2023-03-16T05:57:29;19.95;;;9.13;;
55364;SDS011;41245;45.384;20.390;2023-03-16T05:59:55;20.10;;;10.30;;
55364;SDS011;41245;45.384;20.390;2023-03-16T06:02:21;22.88;;;9.25;;
55364;SDS011;41245;45.384;20.390;2023-03-16T06:04:47;18.08;;;10.73;;
55364;SDS011;41245;45.384;20.390;2023-03-16T06:07:13;24.40;;;11.25;;
55364;SDS011;41245;45.384;20.390;2023-03-16T06:09:39;20.23;;;9.02;;
55364;SDS011;41245;45.384;20.390;2023-03-16T06:12:05;18.63;;;10.38;;
55364;SDS011;41245;45.384;20.390;2023-03-16T06:14:31;17.58;;;9.82;;
55364;SDS011;41245;45.384;20.390;2023-03-16T06:16:57;20.25;;;8.85;;
55364;SDS011;41245;45.384;20.390;2023-03-16T06:19:23;19.40;;;10.10;;
55364;SDS011;41245;45.384;20.390;2023-03-16T06:21:49;17.50;;;8.20;;
55364;SDS011;41245;45.384;20.390;2023-03-16T06:24:15;14.30;;;7.75;;
55364;SDS011;41245;45.384;20.390;2023-03-16T06:26:41;13.95;;;7.72;;
55364;SDS011;41245;45.384;20.390;2023-03-16T06:29:07;13.02;;;7.78;;
55364;SDS011;41245;45.384;20.390;2023-03-16T06:31:33;14.70;;;7.82;;
55364;SDS011;41245;45.384;20.390;2023-03-16T06:34:00;19.33;;;7.72;;
55364;SDS011;41245;45.384;20.390;2023-03-16T06:36:27;13.95;;;7.82;;
55364;SDS011;41245;45.384;20.390;2023-03-16T06:38:53;18.38;;;8.48;;
55364;SDS011;41245;45.384;20.390;2023-03-16T06:41:19;16.10;;;7.75;;
55364;SDS011;41245;45.384;20.390;2023-03-16T06:43:46;17.33;;;7.90;;
55364;SDS011;41245;45.384;20.390;2023-03-16T06:46:12;16.48;;;8.45;;
55364;SDS011;41245;45.384;20.390;2023-03-16T06:48:38;14.45;;;8.48;;
55364;SDS011;41245;45.384;20.390;2023-03-16T06:51:05;21.15;;;8.50;;
55364;SDS011;41245;45.384;20.390;2023-03-16T06:53:32;14.40;;;6.95;;
55364;SDS011;41245;45.384;20.390;2023-03-16T06:55:58;11.70;;;6.90;;
55364;SDS011;41245;45.384;20.390;2023-03-16T06:58:24;14.15;;;7.38;;
55364;SDS011;41245;45.384;20.390;2023-03-16T07:00:50;20.48;;;9.80;;
55364;SDS011;41245;45.384;20.390;2023-03-16T07:03:17;14.85;;;7.00;;
55364;SDS011;41245;45.384;20.390;2023-03-16T07:05:43;16.30;;;7.55;;
55364;SDS011;41245;45.384;20.390;2023-03-16T07:08:09;19.13;;;9.77;;
55364;SDS011;41245;45.384;20.390;2023-03-16T07:10:36;19.30;;;8.82;;
55364;SDS011;41245;45.384;20.390;2023-03-16T07:13:02;18.48;;;9.35;;
55364;SDS011;41245;45.384;20.390;2023-03-16T07:15:28;21.40;;;9.02;;
55364;SDS011;41245;45.384;20.390;2023-03-16T07:17:54;14.77;;;8.38;;
55364;SDS011;41245;45.384;20.390;2023-03-16T07:20:20;21.05;;;10.50;;
55364;SDS011;41245;45.384;20.390;2023-03-16T07:22:46;19.23;;;9.55;;
55364;SDS011;41245;45.384;20.390;2023-03-16T07:25:12;20.98;;;8.82;;
55364;SDS011;41245;45.384;20.390;2023-03-16T07:27:39;17.88;;;8.68;;
55364;SDS011;41245;45.384;20.390;2023-03-16T07:30:07;18.17;;;9.27;;
55364;SDS011;41245;45.384;20.390;2023-03-16T07:32:36;15.05;;;7.15;;
55364;SDS011;41245;45.384;20.390;2023-03-16T07:35:02;19.50;;;8.75;;
55364;SDS011;41245;45.384;20.390;2023-03-16T07:37:28;25.10;;;10.38;;
55364;SDS011;41245;45.384;20.390;2023-03-16T07:39:54;30.08;;;9.77;;
55364;SDS011;41245;45.384;20.390;2023-03-16T07:42:20;16.45;;;8.45;;
55364;SDS011;41245;45.384;20.390;2023-03-16T07:44:46;23.92;;;8.95;;
55364;SDS011;41245;45.384;20.390;2023-03-16T07:47:12;17.38;;;7.82;;
55364;SDS011;41245;45.384;20.390;2023-03-16T07:49:38;13.98;;;7.10;;
55364;SDS011;41245;45.384;20.390;2023-03-16T07:52:05;10.70;;;6.07;;
55364;SDS011;41245;45.384;20.390;2023-03-16T07:54:31;13.38;;;6.95;;
55364;SDS011;41245;45.384;20.390;2023-03-16T07:56:57;8.95;;;4.65;;
55364;SDS011;41245;45.384;20.390;2023-03-16T07:59:23;13.45;;;6.38;;
55364;SDS011;41245;45.384;20.390;2023-03-16T08:01:49;19.65;;;7.30;;
55364;SDS011;41245;45.384;20.390;2023-03-16T08:04:15;16.10;;;5.38;;
55364;SDS011;41245;45.384;20.390;2023-03-16T08:06:41;11.35;;;4.30;;
55364;SDS011;41245;45.384;20.390;2023-03-16T08:09:07;12.38;;;5.57;;
55364;SDS011;41245;45.384;20.390;2023-03-16T08:11:33;11.85;;;5.30;;
55364;SDS011;41245;45.384;20.390;2023-03-16T08:13:59;9.85;;;5.13;;
55364;SDS011;41245;45.384;20.390;2023-03-16T08:16:25;13.10;;;4.88;;
55364;SDS011;41245;45.384;20.390;2023-03-16T08:18:54;14.52;;;5.07;;
55364;SDS011;41245;45.384;20.390;2023-03-16T08:21:21;14.27;;;5.85;;
55364;SDS011;41245;45.384;20.390;2023-03-16T08:23:47;9.43;;;4.63;;
55364;SDS011;41245;45.384;20.390;2023-03-16T08:26:20;7.50;;;3.53;;
55364;SDS011;41245;45.384;20.390;2023-03-16T08:28:47;11.85;;;4.85;;
55364;SDS011;41245;45.384;20.390;2023-03-16T08:31:16;14.63;;;4.95;;
55364;SDS011;41245;45.384;20.390;2023-03-16T08:33:43;14.93;;;6.47;;
55364;SDS011;41245;45.384;20.390;2023-03-16T08:36:11;9.88;;;5.30;;
55364;SDS011;41245;45.384;20.390;2023-03-16T08:38:37;10.57;;;5.97;;
55364;SDS011;41245;45.384;20.390;2023-03-16T08:41:07;16.33;;;5.38;;
55364;SDS011;41245;45.384;20.390;2023-03-16T08:43:33;10.02;;;4.25;;
55364;SDS011;41245;45.384;20.390;2023-03-16T08:46:01;11.07;;;4.80;;
55364;SDS011;41245;45.384;20.390;2023-03-16T08:48:29;13.75;;;5.38;;
55364;SDS011;41245;45.384;20.390;2023-03-16T08:50:57;15.02;;;6.05;;
55364;SDS011;41245;45.384;20.390;2023-03-16T08:53:25;14.15;;;6.78;;
55364;SDS011;41245;45.384;20.390;2023-03-16T08:55:59;10.32;;;3.75;;
55364;SDS011;41245;45.384;20.390;2023-03-16T08:58:25;9.23;;;5.50;;
55364;SDS011;41245;45.384;20.390;2023-03-16T09:00:54;11.27;;;5.10;;
55364;SDS011;41245;45.384;20.390;2023-03-16T09:03:20;13.77;;;5.50;;
55364;SDS011;41245;45.384;20.390;2023-03-16T09:05:46;9.52;;;4.20;;
55364;SDS011;41245;45.384;20.390;2023-03-16T09:08:13;11.82;;;6.18;;
55364;SDS011;41245;45.384;20.390;2023-03-16T09:10:40;9.35;;;5.30;;
55364;SDS011;41245;45.384;20.390;2023-03-16T09:13:06;11.45;;;3.92;;
55364;SDS011;41245;45.384;20.390;2023-03-16T09:15:32;16.95;;;4.78;;
55364;SDS011;41245;45.384;20.390;2023-03-16T09:17:59;15.48;;;4.85;;
55364;SDS011;41245;45.384;20.390;2023-03-16T09:20:27;6.97;;;4.18;;
55364;SDS011;41245;45.384;20.390;2023-03-16T09:22:54;8.40;;;4.65;;
55364;SDS011;41245;45.384;20.390;2023-03-16T09:25:20;13.80;;;4.88;;
55364;SDS011;41245;45.384;20.390;2023-03-16T09:27:46;9.45;;;4.00;;
55364;SDS011;41245;45.384;20.390;2023-03-16T09:30:12;11.13;;;4.70;;
55364;SDS011;41245;45.384;20.390;2023-03-16T09:32:40;11.98;;;5.35;;
55364;SDS011;41245;45.384;20.390;2023-03-16T09:35:06;7.75;;;3.70;;
55364;SDS011;41245;45.384;20.390;2023-03-16T09:37:33;9.27;;;3.78;;
55364;SDS011;41245;45.384;20.390;2023-03-16T09:39:59;12.30;;;3.22;;
55364;SDS011;41245;45.384;20.390;2023-03-16T09:42:39;10.07;;;3.97;;
55364;SDS011;41245;45.384;20.390;2023-03-16T09:45:18;8.73;;;3.33;;
55364;SDS011;41245;45.384;20.390;2023-03-16T09:47:55;13.13;;;4.15;;
55364;SDS011;41245;45.384;20.390;2023-03-16T09:50:27;13.48;;;3.65;;
55364;SDS011;41245;45.384;20.390;2023-03-16T09:53:21;7.75;;;4.80;;
55364;SDS011;41245;45.384;20.390;2023-03-16T09:56:10;7.15;;;3.65;;
55364;SDS011;41245;45.384;20.390;2023-03-16T09:58:40;12.27;;;4.55;;
55364;SDS011;41245;45.384;20.390;2023-03-16T10:01:25;18.92;;;4.72;;
55364;SDS011;41245;45.384;20.390;2023-03-16T10:06:24;8.13;;;3.40;;
55364;SDS011;41245;45.384;20.390;2023-03-16T10:08:52;8.02;;;3.55;;
55364;SDS011;41245;45.384;20.390;2023-03-16T10:11:41;5.37;;;3.27;;
55364;SDS011;41245;45.384;20.390;2023-03-16T10:16:48;8.77;;;3.08;;
55364;SDS011;41245;45.384;20.390;2023-03-16T10:21:45;14.40;;;3.97;;
55364;SDS011;41245;45.384;20.390;2023-03-16T10:24:18;6.90;;;2.95;;
55364;SDS011;41245;45.384;20.390;2023-03-16T10:26:50;9.88;;;3.70;;
55364;SDS011;41245;45.384;20.390;2023-03-16T10:31:44;6.40;;;3.30;;
55364;SDS011;41245;45.384;20.390;2023-03-16T10:34:10;7.90;;;3.83;;
55364;SDS011;41245;45.384;20.390;2023-03-16T10:36:38;6.22;;;3.90;;
55364;SDS011;41245;45.384;20.390;2023-03-16T10:39:09;9.00;;;4.85;;
55364;SDS011;41245;45.384;20.390;2023-03-16T10:41:37;7.57;;;3.15;;
55364;SDS011;41245;45.384;20.390;2023-03-16T10:46:49;15.77;;;3.60;;
55364;SDS011;41245;45.384;20.390;2023-03-16T10:49:34;6.28;;;3.83;;
55364;SDS011;41245;45.384;20.390;2023-03-16T10:57:47;6.88;;;3.08;;
55364;SDS011;41245;45.384;20.390;2023-03-16T11:02:50;6.35;;;3.38;;
55364;SDS011;41245;45.384;20.390;2023-03-16T11:10:34;6.15;;;2.97;;
55364;SDS011;41245;45.384;20.390;2023-03-16T11:13:03;11.98;;;4.25;;
55364;SDS011;41245;45.384;20.390;2023-03-16T11:15:48;7.28;;;3.13;;
55364;SDS011;41245;45.384;20.390;2023-03-16T11:20:57;14.23;;;4.47;;
55364;SDS011;41245;45.384;20.390;2023-03-16T11:23:31;10.75;;;3.95;;
55364;SDS011;41245;45.384;20.390;2023-03-16T11:25:59;5.10;;;3.35;;
55364;SDS011;41245;45.384;20.390;2023-03-16T11:28:42;15.27;;;6.40;;
55364;SDS011;41245;45.384;20.390;2023-03-16T11:31:20;10.13;;;4.20;;
55364;SDS011;41245;45.384;20.390;2023-03-16T11:34:14;12.30;;;4.60;;
55364;SDS011;41245;45.384;20.390;2023-03-16T11:36:50;8.50;;;4.85;;
55364;SDS011;41245;45.384;20.390;2023-03-16T11:40:09;8.40;;;3.60;;
55364;SDS011;41245;45.384;20.390;2023-03-16T11:42:32;6.88;;;3.55;;
55364;SDS011;41245;45.384;20.390;2023-03-16T11:57:05;8.55;;;4.03;;
55364;SDS011;41245;45.384;20.390;2023-03-16T12:03:10;10.90;;;3.70;;
55364;SDS011;41245;45.384;20.390;2023-03-16T12:05:44;8.15;;;3.55;;
55364;SDS011;41245;45.384;20.390;2023-03-16T12:11:03;10.80;;;4.10;;
55364;SDS011;41245;45.384;20.390;2023-03-16T12:18:48;7.47;;;4.20;;
55364;SDS011;41245;45.384;20.390;2023-03-16T12:21:41;16.33;;;4.45;;
55364;SDS011;41245;45.384;20.390;2023-03-16T12:24:13;12.90;;;4.25;;
55364;SDS011;41245;45.384;20.390;2023-03-16T12:26:43;15.18;;;6.05;;
55364;SDS011;41245;45.384;20.390;2023-03-16T12:31:41;11.93;;;5.13;;
55364;SDS011;41245;45.384;20.390;2023-03-16T12:49:23;9.07;;;4.32;;
55364;SDS011;41245;45.384;20.390;2023-03-16T12:51:57;6.82;;;3.58;;
55364;SDS011;41245;45.384;20.390;2023-03-16T12:54:24;8.13;;;4.68;;
55364;SDS011;41245;45.384;20.390;2023-03-16T12:56:52;8.77;;;4.25;;
55364;SDS011;41245;45.384;20.390;2023-03-16T12:59:20;15.95;;;7.20;;
55364;SDS011;41245;45.384;20.390;2023-03-16T13:01:48;12.88;;;6.10;;
55364;SDS011;41245;45.384;20.390;2023-03-16T13:04:16;9.38;;;5.32;;
55364;SDS011;41245;45.384;20.390;2023-03-16T13:06:49;15.25;;;7.50;;
55364;SDS011;41245;45.384;20.390;2023-03-16T13:09:17;27.00;;;11.40;;
55364;SDS011;41245;45.384;20.390;2023-03-16T13:11:46;7.45;;;4.35;;
55364;SDS011;41245;45.384;20.390;2023-03-16T13:17:01;6.70;;;3.35;;
55364;SDS011;41245;45.384;20.390;2023-03-16T13:19:30;8.35;;;3.00;;
55364;SDS011;41245;45.384;20.390;2023-03-16T13:22:03;9.95;;;5.00;;
55364;SDS011;41245;45.384;20.390;2023-03-16T13:24:37;7.28;;;4.60;;
55364;SDS011;41245;45.384;20.390;2023-03-16T13:30:11;17.10;;;6.32;;
55364;SDS011;41245;45.384;20.390;2023-03-16T13:32:40;16.73;;;5.95;;
55364;SDS011;41245;45.384;20.390;2023-03-16T13:35:07;9.88;;;4.32;;
55364;SDS011;41245;45.384;20.390;2023-03-16T13:37:33;8.63;;;4.55;;
55364;SDS011;41245;45.384;20.390;2023-03-16T13:40:00;13.02;;;5.10;;
55364;SDS011;41245;45.384;20.390;2023-03-16T13:42:31;7.50;;;3.95;;
55364;SDS011;41245;45.384;20.390;2023-03-16T13:44:58;9.90;;;5.20;;
55364;SDS011;41245;45.384;20.390;2023-03-16T13:47:28;6.95;;;4.00;;
55364;SDS011;41245;45.384;20.390;2023-03-16T13:49:55;7.38;;;4.25;;
55364;SDS011;41245;45.384;20.390;2023-03-16T13:52:24;8.15;;;3.63;;
55364;SDS011;41245;45.384;20.390;2023-03-16T13:54:50;10.50;;;4.75;;
55364;SDS011;41245;45.384;20.390;2023-03-16T13:57:18;16.50;;;5.30;;
55364;SDS011;41245;45.384;20.390;2023-03-16T13:59:45;9.38;;;4.07;;
55364;SDS011;41245;45.384;20.390;2023-03-16T14:02:17;11.10;;;4.60;;
55364;SDS011;41245;45.384;20.390;2023-03-16T14:04:43;11.43;;;5.60;;
55364;SDS011;41245;45.384;20.390;2023-03-16T14:07:13;6.22;;;3.20;;
55364;SDS011;41245;45.384;20.390;2023-03-16T14:09:43;5.40;;;3.83;;
55364;SDS011;41245;45.384;20.390;2023-03-16T14:12:13;8.65;;;4.15;;
55364;SDS011;41245;45.384;20.390;2023-03-16T14:14:40;9.27;;;4.57;;
55364;SDS011;41245;45.384;20.390;2023-03-16T14:22:24;6.85;;;3.80;;
55364;SDS011;41245;45.384;20.390;2023-03-16T14:24:54;7.17;;;2.97;;
55364;SDS011;41245;45.384;20.390;2023-03-16T14:32:39;7.22;;;4.68;;
55364;SDS011;41245;45.384;20.390;2023-03-16T14:37:35;8.13;;;3.90;;
55364;SDS011;41245;45.384;20.390;2023-03-16T14:40:03;9.10;;;4.18;;
55364;SDS011;41245;45.384;20.390;2023-03-16T14:42:30;9.02;;;2.85;;
55364;SDS011;41245;45.384;20.390;2023-03-16T14:44:57;4.72;;;2.58;;
55364;SDS011;41245;45.384;20.390;2023-03-16T14:47:25;14.85;;;3.67;;
55364;SDS011;41245;45.384;20.390;2023-03-16T14:49:52;7.35;;;3.15;;
55364;SDS011;41245;45.384;20.390;2023-03-16T14:54:48;11.10;;;4.47;;
55364;SDS011;41245;45.384;20.390;2023-03-16T14:57:16;13.48;;;4.75;;
55364;SDS011;41245;45.384;20.390;2023-03-16T14:59:43;7.97;;;3.53;;
55364;SDS011;41245;45.384;20.390;2023-03-16T15:02:14;5.03;;;3.05;;
55364;SDS011;41245;45.384;20.390;2023-03-16T15:04:41;4.47;;;2.63;;
55364;SDS011;41245;45.384;20.390;2023-03-16T15:07:16;6.43;;;3.42;;
55364;SDS011;41245;45.384;20.390;2023-03-16T15:09:43;6.05;;;3.55;;
55364;SDS011;41245;45.384;20.390;2023-03-16T15:12:13;2.78;;;2.22;;
55364;SDS011;41245;45.384;20.390;2023-03-16T15:14:39;3.88;;;2.53;;
55364;SDS011;41245;45.384;20.390;2023-03-16T15:17:24;9.82;;;3.78;;
55364;SDS011;41245;45.384;20.390;2023-03-16T15:19:51;7.20;;;4.35;;
55364;SDS011;41245;45.384;20.390;2023-03-16T15:22:18;6.60;;;3.33;;
55364;SDS011;41245;45.384;20.390;2023-03-16T15:24:45;8.13;;;4.40;;
55364;SDS011;41245;45.384;20.390;2023-03-16T15:27:16;7.70;;;3.88;;
55364;SDS011;41245;45.384;20.390;2023-03-16T15:29:43;6.00;;;3.63;;
55364;SDS011;41245;45.384;20.390;2023-03-16T15:32:13;6.97;;;3.17;;
55364;SDS011;41245;45.384;20.390;2023-03-16T15:34:42;6.18;;;2.85;;
55364;SDS011;41245;45.384;20.390;2023-03-16T15:37:14;5.45;;;2.70;;
55364;SDS011;41245;45.384;20.390;2023-03-16T15:39:41;7.80;;;3.35;;
55364;SDS011;41245;45.384;20.390;2023-03-16T15:42:25;5.30;;;2.22;;
55364;SDS011;41245;45.384;20.390;2023-03-16T15:44:51;5.50;;;3.08;;
55364;SDS011;41245;45.384;20.390;2023-03-16T15:47:17;8.63;;;3.33;;
55364;SDS011;41245;45.384;20.390;2023-03-16T15:49:44;9.90;;;4.88;;
55364;SDS011;41245;45.384;20.390;2023-03-16T15:52:20;12.55;;;4.80;;
55364;SDS011;41245;45.384;20.390;2023-03-16T15:54:47;6.38;;;3.42;;
55364;SDS011;41245;45.384;20.390;2023-03-16T15:57:13;15.18;;;5.40;;
55364;SDS011;41245;45.384;20.390;2023-03-16T15:59:39;18.10;;;6.97;;
55364;SDS011;41245;45.384;20.390;2023-03-16T16:02:20;6.53;;;3.03;;
55364;SDS011;41245;45.384;20.390;2023-03-16T16:04:48;7.93;;;3.38;;
55364;SDS011;41245;45.384;20.390;2023-03-16T16:07:14;10.10;;;3.20;;
55364;SDS011;41245;45.384;20.390;2023-03-16T16:09:40;9.57;;;4.63;;
55364;SDS011;41245;45.384;20.390;2023-03-16T16:12:09;11.10;;;4.18;;
55364;SDS011;41245;45.384;20.390;2023-03-16T16:14:36;8.93;;;3.83;;
55364;SDS011;41245;45.384;20.390;2023-03-16T16:17:04;4.30;;;2.35;;